Time;durP1;ratioP1;P1;durP2;ratioP2;P2;SDS_P1;SDS_P2;PMS_P1;PMS_P2;Temp;Humidity;BMP_temperature;BMP_pressure;BME280_temperature;BME280_humidity;BME280_pressure;Samples;Min_cycle;Max_cycle;Signal;HPM_P1;HPM_P2
2021/08/14 00:04:51;;;;;;;;;;;22.80;99.90;;;21.91;77.28;96294.09;10494345;28;2536;-79
2021/08/14 00:09:54;;;;;;;;;;;22.80;99.90;;;21.96;77.28;96295.84;10494742;28;2640;-79
2021/08/14 00:14:57;;;;;;;;;;;22.80;99.90;;;21.87;77.71;96293.16;10479499;28;2494;-78
2021/08/14 00:19:59;;;;;;;;;;;22.80;99.90;;;22.08;76.84;96288.50;10494396;28;2387;-76
2021/08/14 00:25:02;;;;;;;;;;;22.90;99.90;;;22.00;77.40;96286.63;10492949;28;2210;-77
2021/08/14 00:30:05;;;;;;;;;;;22.90;99.90;;;21.91;77.70;96283.16;10493127;28;2367;-79
2021/08/14 00:35:07;;;;;;;;;;;22.90;99.90;;;21.75;78.38;96274.72;10502737;28;2447;-78
2021/08/14 00:40:10;;;;;;;;;;;22.70;99.90;;;21.74;78.86;96275.88;10501353;28;2455;-78
2021/08/14 00:45:13;;;;;;;;;;;22.60;99.90;;;21.72;78.92;96269.94;10494462;28;2466;-78
2021/08/14 00:50:15;;;;;;;;;;;22.60;99.90;;;21.56;79.69;96268.91;10487120;28;2317;-77
2021/08/14 00:55:18;;;;;;;;;;;22.60;99.90;;;21.70;79.12;96266.75;10496449;28;2456;-78
2021/08/14 01:00:21;;;;;;;;;;;22.50;99.90;;;21.68;79.21;96277.19;10488751;28;2171;-78
2021/08/14 01:05:23;;;;;;;;;;;22.50;99.90;;;22.02;77.38;96272.63;10482684;28;2503;-79
2021/08/14 01:10:26;;;;;;;;;;;22.60;99.90;;;22.22;76.34;96271.81;10496119;28;2467;-79
2021/08/14 01:15:29;;;;;;;;;;;22.80;99.90;;;22.16;76.62;96286.06;10506140;28;2191;-78
2021/08/14 01:20:32;;;;;;;;;;;22.90;99.90;;;22.12;76.83;96289.44;10485246;28;2602;-77
2021/08/14 01:25:34;;;;;;;;;;;22.90;99.90;;;22.07;77.08;96286.88;10498770;28;2440;-77
2021/08/14 01:30:37;;;;;;;;;;;22.90;99.90;;;22.27;76.28;96284.53;10478305;28;2435;-78
2021/08/14 01:35:40;;;;;;;;;;;23.00;99.90;;;22.26;76.21;96277.41;10508146;28;2454;-77
2021/08/14 01:40:43;;;;;;;;;;;23.00;99.90;;;22.15;76.65;96271.56;10504389;28;2539;-78
2021/08/14 01:45:45;;;;;;;;;;;23.00;99.90;;;22.04;77.26;96286.75;10491257;28;2488;-79
2021/08/14 01:50:48;;;;;;;;;;;22.90;99.90;;;21.86;78.34;96295.09;10492982;28;2497;-78
2021/08/14 01:55:51;;;;;;;;;;;22.80;99.90;;;21.80;78.73;96287.44;10512866;28;3115;-78
2021/08/14 02:00:54;;;;;;;;;;;22.70;99.90;;;21.62;79.56;96286.72;10488860;28;2376;-78
2021/08/14 02:05:57;;;;;;;;;;;22.60;99.90;;;21.33;80.90;96279.38;10498029;28;2681;-78
2021/08/14 02:10:59;;;;;;;;;;;22.40;99.90;;;21.08;82.51;96296.66;10496347;28;2523;-77
2021/08/14 02:16:02;;;;;;;;;;;22.10;99.90;;;20.99;82.89;96300.25;10478210;28;2421;-77
2021/08/14 02:21:05;;;;;;;;;;;22.00;99.90;;;20.86;83.53;96298.50;10474656;28;2466;-79
2021/08/14 02:26:07;;;;;;;;;;;21.80;99.90;;;21.04;82.98;96294.56;10484942;28;2575;-77
2021/08/14 02:31:10;;;;;;;;;;;21.80;99.90;;;20.93;83.71;96298.00;10498662;28;2463;-78
2021/08/14 02:36:13;;;;;;;;;;;21.90;99.90;;;20.95;83.74;96288.34;10487171;28;2452;-78
2021/08/14 02:41:15;;;;;;;;;;;21.80;99.90;;;21.12;82.82;96284.75;10508555;28;2095;-79
2021/08/14 02:46:18;;;;;;;;;;;21.90;99.90;;;21.40;80.78;96287.84;10501146;28;2538;-79
2021/08/14 02:51:21;;;;;;;;;;;22.00;99.90;;;21.43;80.82;96278.97;10497973;28;1942;-78
2021/08/14 02:56:23;;;;;;;;;;;22.20;99.90;;;21.54;80.15;96280.19;10496809;28;3228;-78
2021/08/14 03:01:26;;;;;;;;;;;22.20;99.90;;;21.08;82.35;96283.00;10497893;28;2397;-78
2021/08/14 03:06:29;;;;;;;;;;;22.10;99.90;;;21.03;82.62;96276.56;10514914;28;2539;-78
2021/08/14 03:11:32;;;;;;;;;;;22.00;99.90;;;21.12;82.01;96273.00;10518900;28;2614;-78
2021/08/14 03:16:34;;;;;;;;;;;22.00;99.90;;;21.05;82.13;96279.78;10495897;28;2102;-79
2021/08/14 03:21:37;;;;;;;;;;;22.00;99.90;;;21.16;81.86;96274.75;10497560;28;2471;-78
2021/08/14 03:26:40;;;;;;;;;;;21.90;99.90;;;20.93;82.35;96276.97;10497528;28;2527;-78
2021/08/14 03:31:42;;;;;;;;;;;21.90;99.90;;;20.72;83.50;96274.13;10491492;28;2506;-78
2021/08/14 03:36:45;;;;;;;;;;;21.80;99.90;;;20.79;83.70;96273.63;10503920;28;2562;-78
2021/08/14 03:41:48;;;;;;;;;;;21.60;99.90;;;20.96;82.50;96276.28;10504726;28;2565;-78
2021/08/14 03:46:50;;;;;;;;;;;21.70;99.90;;;21.23;81.65;96266.81;10501485;28;2435;-78
2021/08/14 03:51:53;;;;;;;;;;;21.80;99.90;;;21.20;81.32;96274.91;10507049;28;2532;-78
2021/08/14 03:56:56;;;;;;;;;;;21.90;99.90;;;21.26;80.68;96263.44;10494533;28;2392;-78
2021/08/14 04:01:58;;;;;;;;;;;22.10;99.90;;;21.04;82.00;96277.38;10475950;28;2463;-80
2021/08/14 04:07:01;;;;;;;;;;;22.00;99.90;;;21.19;81.25;96285.03;10500759;28;2586;-78
2021/08/14 04:12:04;;;;;;;;;;;22.00;99.90;;;21.03;81.88;96284.78;10483506;28;2558;-79
2021/08/14 04:17:07;;;;;;;;;;;22.00;99.90;;;21.10;81.94;96288.94;10486076;28;2393;-80
2021/08/14 04:22:09;;;;;;;;;;;21.90;99.90;;;21.30;80.99;96290.94;10494335;28;2412;-79
2021/08/14 04:27:12;;;;;;;;;;;22.00;99.90;;;21.58;79.48;96283.09;10498829;28;2420;-79
2021/08/14 04:32:15;;;;;;;;;;;22.10;99.90;;;21.74;78.51;96289.56;10495990;28;2592;-77
2021/08/14 04:37:17;;;;;;;;;;;22.30;99.90;;;21.59;79.18;96293.69;10496787;28;2526;-79
2021/08/14 04:42:20;;;;;;;;;;;22.40;99.90;;;21.68;78.94;96290.09;10493653;28;2578;-78
2021/08/14 04:47:23;;;;;;;;;;;22.40;99.90;;;21.86;77.99;96299.78;10494419;28;2503;-77
2021/08/14 04:52:25;;;;;;;;;;;22.50;99.90;;;21.90;77.75;96308.13;10490349;28;2518;-77
2021/08/14 04:57:28;;;;;;;;;;;22.50;99.90;;;22.10;76.80;96308.16;10489820;28;3107;-77
2021/08/14 05:02:31;;;;;;;;;;;22.70;99.90;;;22.18;76.52;96306.47;10475976;28;2373;-77
2021/08/14 05:07:34;;;;;;;;;;;22.80;99.90;;;22.18;76.53;96308.41;10473433;28;2460;-78
2021/08/14 05:12:37;;;;;;;;;;;22.90;99.90;;;22.21;76.30;96303.09;10482920;28;2495;-76
2021/08/14 05:17:39;;;;;;;;;;;22.90;99.90;;;22.22;75.85;96310.16;10498012;28;2458;-78
2021/08/14 05:22:42;;;;;;;;;;;22.90;99.90;;;22.43;74.43;96306.59;10473371;28;2581;-78
2021/08/14 05:27:45;;;;;;;;;;;23.10;99.90;;;22.76;72.80;96295.59;10484034;28;2482;-77
2021/08/14 05:32:47;;;;;;;;;;;23.30;99.90;;;22.88;72.10;96299.22;10495203;28;2499;-77
2021/08/14 05:37:51;;;;;;;;;;;23.50;99.90;;;23.25;70.14;96304.75;10488552;28;2459;-78
2021/08/14 05:42:54;;;;;;;;;;;23.70;99.90;;;23.73;68.02;96312.19;10489108;28;2408;-78
2021/08/14 05:47:57;;;;;;;;;;;24.10;99.90;;;24.32;65.49;96316.28;10493870;28;2491;-78
2021/08/14 05:52:59;;;;;;;;;;;24.60;99.90;;;24.62;64.24;96319.50;10490449;28;2523;-76
2021/08/14 05:58:02;;;;;;;;;;;24.90;99.90;;;24.63;63.78;96326.59;10490422;28;3063;-77
2021/08/14 06:03:05;;;;;;;;;;;25.10;99.90;;;24.13;65.50;96314.16;10493953;28;2490;-77
2021/08/14 06:08:08;;;;;;;;;;;24.90;99.90;;;24.03;65.61;96305.59;10501531;28;2549;-78
2021/08/14 06:13:11;;;;;;;;;;;24.70;99.90;;;24.16;65.07;96305.22;10482156;28;2471;-78
2021/08/14 06:18:14;;;;;;;;;;;24.70;99.90;;;24.49;63.44;96309.69;10483767;28;2551;-77
2021/08/14 06:23:16;;;;;;;;;;;24.90;99.90;;;24.90;61.49;96313.97;10501011;28;2463;-81
2021/08/14 06:28:19;;;;;;;;;;;25.10;99.90;;;25.07;60.48;96307.38;10509165;28;2130;-82
2021/08/14 06:33:22;;;;;;;;;;;25.30;99.90;;;24.95;60.26;96312.91;10497398;28;2332;-82
2021/08/14 06:38:24;;;;;;;;;;;25.50;99.90;;;24.90;60.40;96305.72;10503650;28;2446;-82
2021/08/14 06:43:27;;;;;;;;;;;25.50;99.90;;;24.95;60.67;96310.16;10506199;28;2665;-83
2021/08/14 06:48:30;;;;;;;;;;;25.60;99.90;;;25.26;59.30;96320.44;10510180;28;2971;-79
2021/08/14 06:53:32;;;;;;;;;;;25.80;99.90;;;25.87;56.41;96306.94;10511969;28;2439;-77
2021/08/14 06:58:35;;;;;;;;;;;26.00;99.90;;;25.95;57.24;96315.38;10513256;28;3215;-79
2021/08/14 07:03:38;;;;;;;;;;;26.10;99.90;;;26.16;56.18;96313.09;10515032;28;2518;-79
2021/08/14 07:08:41;;;;;;;;;;;26.50;99.90;;;26.48;54.16;96307.47;10499971;28;3002;-79
2021/08/14 07:13:44;;;;;;;;;;;26.70;99.90;;;26.71;53.15;96310.28;10479782;28;2529;-76
2021/08/14 07:18:46;;;;;;;;;;;26.90;99.90;;;26.94;52.18;96319.38;10501059;28;2683;-76
2021/08/14 07:23:49;;;;;;;;;;;27.20;99.90;;;26.70;52.68;96315.00;10480100;28;2526;-78
2021/08/14 07:28:52;;;;;;;;;;;27.10;99.90;;;26.56;53.78;96314.72;10495045;28;2530;-79
2021/08/14 07:33:55;;;;;;;;;;;27.10;99.90;;;27.11;51.99;96298.84;10495446;28;2542;-78
2021/08/14 07:38:57;;;;;;;;;;;27.30;99.90;;;27.07;50.95;96296.00;10495073;28;2579;-80
2021/08/14 07:44:00;;;;;;;;;;;27.50;99.90;;;26.83;51.16;96297.13;10494367;28;2456;-80
2021/08/14 07:49:21;;;;;;;;;;;27.40;99.90;;;26.36;51.90;96306.44;10494419;28;2959;-80
2021/08/14 07:54:24;;;;;;;;;;;27.50;99.90;;;26.64;51.62;96294.38;10496928;28;3154;-78
2021/08/14 07:59:26;;;;;;;;;;;27.40;99.90;;;26.82;51.00;96295.53;10502081;28;2424;-80
2021/08/14 08:04:29;;;;;;;;;;;27.40;99.90;;;26.68;52.48;96295.25;10497717;28;2487;-77
2021/08/14 08:09:32;;;;;;;;;;;27.40;99.90;;;26.49;50.87;96292.53;10485161;28;2703;-80
2021/08/14 08:14:34;;;;;;;;;;;27.30;99.90;;;26.99;49.64;96283.22;10497012;28;2502;-80
2021/08/14 08:19:37;;;;;;;;;;;27.40;99.90;;;27.38;49.77;96283.91;10502527;28;2565;-78
2021/08/14 08:24:40;;;;;;;;;;;27.70;99.90;;;27.40;47.95;96278.81;10500028;28;2561;-79
2021/08/14 08:29:43;;;;;;;;;;;28.00;99.90;;;27.82;46.41;96277.91;10484491;28;2610;-79
2021/08/14 08:34:45;;;;;;;;;;;28.20;99.90;;;27.96;45.62;96274.53;10490861;28;2865;-80
2021/08/14 08:39:48;;;;;;;;;;;28.50;99.90;;;27.75;44.99;96269.50;10504216;28;2491;-78
2021/08/14 08:44:52;;;;;;;;;;;28.50;99.90;;;27.80;43.47;96266.41;10474862;28;3000;-78
2021/08/14 08:49:54;;;;;;;;;;;28.40;99.90;;;27.92;42.38;96268.94;10486657;28;2454;-79
2021/08/14 08:54:57;;;;;;;;;;;28.50;99.90;;;28.05;39.50;96272.28;10496184;28;3248;-80
2021/08/14 09:00:00;;;;;;;;;;;28.60;98.50;;;28.32;40.73;96269.50;10501010;28;2447;-81
2021/08/14 09:05:03;;;;;;;;;;;28.70;98.90;;;28.51;41.62;96267.34;10506812;28;2571;-78
2021/08/14 09:10:05;;;;;;;;;;;28.90;99.50;;;28.89;38.97;96261.81;10505441;28;2460;-80
2021/08/14 09:15:08;;;;;;;;;;;29.10;97.90;;;29.07;40.07;96254.47;10505189;28;2506;-78
2021/08/14 09:20:11;;;;;;;;;;;29.30;98.70;;;29.18;39.13;96249.06;10499586;28;1946;-78
2021/08/14 09:25:13;;;;;;;;;;;29.50;96.80;;;29.12;40.14;96247.81;10509373;28;1938;-79
2021/08/14 09:30:16;;;;;;;;;;;29.40;97.00;;;28.75;39.62;96241.13;10486551;28;2503;-78
2021/08/14 09:35:19;;;;;;;;;;;29.40;95.70;;;28.83;39.97;96244.78;10506061;28;2464;-78
2021/08/14 09:40:21;;;;;;;;;;;29.40;96.00;;;28.58;41.27;96238.19;10505672;28;2361;-78
2021/08/14 09:45:24;;;;;;;;;;;29.30;96.40;;;29.07;40.91;96227.63;10489140;28;2455;-79
2021/08/14 09:50:27;;;;;;;;;;;29.50;96.90;;;28.69;41.84;96219.72;10506284;28;2665;-80
2021/08/14 09:55:29;;;;;;;;;;;29.50;97.50;;;29.22;41.97;96214.69;10500015;28;3139;-79
2021/08/14 10:00:32;;;;;;;;;;;29.60;97.80;;;29.36;41.78;96211.22;10487095;28;2440;-78
2021/08/14 10:05:35;;;;;;;;;;;29.80;97.60;;;28.71;42.29;96214.63;10506606;28;2546;-78
2021/08/14 10:10:38;;;;;;;;;;;29.80;96.20;;;28.48;42.50;96201.72;10484971;28;2416;-78
2021/08/14 10:15:41;;;;;;;;;;;29.60;96.20;;;29.11;42.32;96199.16;10491745;28;2483;-79
2021/08/14 10:20:43;;;;;;;;;;;29.60;97.60;;;29.01;42.11;96190.41;10482676;28;2511;-78
2021/08/14 10:25:46;;;;;;;;;;;29.70;96.90;;;28.74;43.12;96186.19;10488490;28;2455;-78
2021/08/14 10:30:49;;;;;;;;;;;29.50;97.00;;;28.30;43.65;96178.59;10482534;28;2480;-79
2021/08/14 10:35:52;;;;;;;;;;;29.50;96.40;;;28.89;42.55;96170.50;10492587;28;2500;-78
2021/08/14 10:40:54;;;;;;;;;;;29.60;96.60;;;28.66;42.72;96167.94;10500536;28;2404;-77
2021/08/14 10:45:57;;;;;;;;;;;29.50;96.20;;;28.89;42.78;96165.78;10499997;28;2455;-78
2021/08/14 10:51:01;;;;;;;;;;;29.60;96.50;;;29.06;42.37;96153.25;10492045;28;2397;-77
2021/08/14 10:56:03;;;;;;;;;;;29.80;96.20;;;29.60;41.46;96144.16;10497604;28;3186;-77
2021/08/14 11:01:06;;;;;;;;;;;29.90;95.70;;;29.01;42.72;96143.38;10496373;28;2419;-78
2021/08/14 11:06:09;;;;;;;;;;;29.90;95.30;;;29.13;43.02;96146.97;10497501;28;2633;-77
2021/08/14 11:11:12;;;;;;;;;;;29.90;96.10;;;29.11;43.09;96138.28;10482105;28;2628;-78
2021/08/14 11:16:15;;;;;;;;;;;30.00;96.50;;;29.48;42.01;96136.13;10506869;28;2427;-77
2021/08/14 11:21:17;;;;;;;;;;;30.80;94.20;;;29.79;41.98;96131.16;10500063;28;2904;-78
2021/08/14 11:26:20;;;;;;;;;;;30.90;94.10;;;29.55;42.08;96125.13;10488259;28;2400;-78
2021/08/14 11:31:23;;;;;;;;;;;30.60;94.10;;;29.34;42.00;96119.44;10509365;28;2464;-78
2021/08/14 11:36:25;;;;;;;;;;;30.30;94.10;;;29.50;41.99;96106.06;10488299;28;2561;-78
2021/08/14 11:41:32;;;;;;;;;;;30.20;94.40;;;29.35;41.66;96101.66;10493001;28;1932;-78
2021/08/14 11:46:35;;;;;;;;;;;30.20;93.90;;;29.31;42.86;96098.06;10484098;28;2480;-77
2021/08/14 11:51:38;;;;;;;;;;;30.10;95.10;;;29.01;43.08;96087.19;10481793;28;2609;-76
2021/08/14 11:56:40;;;;;;;;;;;29.90;94.30;;;29.00;43.17;96082.84;10498309;28;3008;-79
2021/08/14 12:01:43;;;;;;;;;;;29.90;94.70;;;28.92;43.10;96087.53;10499198;28;2412;-78
2021/08/14 12:06:46;;;;;;;;;;;30.00;94.60;;;29.40;43.08;96087.44;10488200;28;2611;-79
2021/08/14 12:11:49;;;;;;;;;;;30.00;95.30;;;29.63;42.90;96081.63;10494771;28;2547;-78
2021/08/14 12:16:51;;;;;;;;;;;30.30;95.00;;;29.95;41.87;96076.19;10495819;28;2546;-78
2021/08/14 12:21:54;;;;;;;;;;;30.50;94.30;;;30.09;41.65;96065.16;10499488;28;2660;-79
2021/08/14 12:26:57;;;;;;;;;;;30.80;93.50;;;29.89;42.30;96072.22;10495969;28;2397;-78
2021/08/14 12:31:59;;;;;;;;;;;30.80;93.40;;;29.96;41.83;96071.44;10495361;28;2399;-78
2021/08/14 12:37:02;;;;;;;;;;;30.80;93.10;;;30.37;40.16;96063.63;10496474;28;2530;-78
2021/08/14 12:42:05;;;;;;;;;;;31.00;92.90;;;30.51;40.66;96052.53;10479886;28;2495;-79
2021/08/14 12:47:07;;;;;;;;;;;31.10;92.20;;;30.92;38.99;96050.16;10495756;28;2523;-79
2021/08/14 12:52:10;;;;;;;;;;;31.40;91.20;;;30.95;39.25;96048.56;10496354;28;2514;-78
2021/08/14 12:57:13;;;;;;;;;;;31.60;90.40;;;30.31;41.05;96038.25;10492625;28;3279;-79
2021/08/14 13:02:15;;;;;;;;;;;31.30;90.70;;;30.56;40.54;96035.50;10491222;28;2593;-78
2021/08/14 13:07:18;;;;;;;;;;;31.30;91.30;;;30.29;40.84;96037.88;10502341;28;2523;-78
2021/08/14 13:12:21;;;;;;;;;;;31.20;90.90;;;30.17;41.47;96026.38;10504007;28;2475;-78
2021/08/14 13:17:24;;;;;;;;;;;31.00;91.50;;;30.19;40.80;96026.75;10510906;28;2645;-79
2021/08/14 13:22:26;;;;;;;;;;;30.90;90.90;;;30.37;40.92;96016.47;10494716;28;2452;-79
2021/08/14 13:27:29;;;;;;;;;;;31.10;91.20;;;30.24;41.35;96020.84;10502691;28;2543;-77
2021/08/14 13:32:32;;;;;;;;;;;31.10;91.30;;;30.37;41.31;96008.16;10484605;28;2491;-79
2021/08/14 13:37:34;;;;;;;;;;;31.10;91.40;;;30.82;39.80;96000.22;10507116;28;2602;-78
2021/08/14 13:42:37;;;;;;;;;;;31.30;90.40;;;30.72;39.92;96001.00;10505306;28;2393;-78
2021/08/14 13:47:40;;;;;;;;;;;31.60;89.60;;;30.44;40.90;95994.28;10503450;28;2534;-77
2021/08/14 13:52:42;;;;;;;;;;;31.20;90.40;;;30.45;40.68;95983.97;10507790;28;2529;-78
2021/08/14 13:57:52;;;;;;;;;;;31.30;89.90;;;30.73;40.09;95994.25;10505673;28;3032;-77
2021/08/14 14:02:55;;;;;;;;;;;31.30;90.00;;;30.80;39.63;95981.19;10507447;28;2554;-77
2021/08/14 14:07:59;;;;;;;;;;;31.50;89.30;;;30.56;40.82;95985.56;10511109;28;2462;-77
2021/08/14 14:13:02;;;;;;;;;;;31.50;90.00;;;30.38;41.83;95987.53;10502465;28;2491;-78
2021/08/14 14:18:05;;;;;;;;;;;31.20;90.70;;;30.53;41.42;95978.00;10501618;28;2531;-78
2021/08/14 14:23:08;;;;;;;;;;;31.20;90.60;;;30.64;41.24;95973.25;10498019;28;2483;-78
2021/08/14 14:28:10;;;;;;;;;;;31.30;90.70;;;30.71;40.22;95966.91;10488363;28;2537;-77
2021/08/14 14:33:13;;;;;;;;;;;31.50;89.10;;;30.44;40.90;95969.31;10498214;28;2566;-77
2021/08/14 14:38:16;;;;;;;;;;;31.40;89.60;;;30.80;40.93;95963.75;10496243;28;2864;-78
2021/08/14 14:43:19;;;;;;;;;;;31.50;89.80;;;30.74;41.26;95955.03;10488580;28;2483;-78
2021/08/14 14:48:23;;;;;;;;;;;31.40;90.30;;;30.58;41.93;95957.41;10500909;28;2537;-78
2021/08/14 14:53:26;;;;;;;;;;;31.30;90.40;;;31.13;40.88;95960.47;10498520;28;2476;-79
2021/08/14 14:58:28;;;;;;;;;;;31.60;90.60;;;30.52;41.92;95948.69;10497804;28;3154;-79
2021/08/14 15:03:31;;;;;;;;;;;31.50;90.30;;;30.68;41.67;95951.88;10499097;28;2482;-78
2021/08/14 15:08:34;;;;;;;;;;;31.40;90.50;;;30.53;42.07;95939.19;10530974;28;2585;-79
2021/08/14 15:13:37;;;;;;;;;;;31.40;90.10;;;30.75;41.86;95944.72;10524421;28;2531;-80
2021/08/14 15:18:40;;;;;;;;;;;31.40;91.00;;;30.28;42.96;95938.41;10496694;28;2705;-78
2021/08/14 15:23:42;;;;;;;;;;;31.40;90.50;;;30.73;42.09;95942.38;10497750;28;2463;-78
2021/08/14 15:28:46;;;;;;;;;;;31.20;91.20;;;30.39;42.19;95933.66;10494739;28;2465;-79
2021/08/14 15:33:48;;;;;;;;;;;31.30;90.30;;;30.40;42.26;95938.00;10494825;28;2332;-78
2021/08/14 15:38:51;;;;;;;;;;;31.10;90.90;;;30.61;42.15;95932.44;10496520;28;2594;-77
2021/08/14 15:43:54;;;;;;;;;;;31.10;90.80;;;30.47;42.17;95926.91;10499436;28;2523;-78
2021/08/14 15:48:56;;;;;;;;;;;31.20;90.60;;;30.36;41.96;95928.94;10478379;28;2629;-78
2021/08/14 15:53:59;;;;;;;;;;;31.30;90.00;;;30.16;43.15;95920.25;10497870;28;2549;-78
2021/08/14 15:59:02;;;;;;;;;;;31.00;91.00;;;30.14;43.03;95917.06;10489490;28;2414;-79
2021/08/14 16:04:04;;;;;;;;;;;30.90;90.70;;;30.04;43.06;95917.84;10505437;28;2576;-77
2021/08/14 16:09:22;;;;;;;;;;;30.90;90.70;;;29.88;43.81;95923.75;10483273;28;2597;-79
2021/08/14 16:14:24;;;;;;;;;;;30.80;91.10;;;29.90;43.57;95918.59;10497487;28;2519;-77
2021/08/14 16:19:27;;;;;;;;;;;30.70;91.30;;;29.82;43.99;95920.59;10484828;28;2482;-78
2021/08/14 16:24:30;;;;;;;;;;;30.60;91.60;;;29.76;44.50;95913.06;10494847;28;2554;-77
2021/08/14 16:29:33;;;;;;;;;;;30.60;92.20;;;29.54;44.93;95917.78;10474414;28;2648;-79
2021/08/14 16:34:35;;;;;;;;;;;30.50;92.50;;;29.53;44.89;95908.69;10495002;28;2380;-78
2021/08/14 16:39:39;;;;;;;;;;;30.20;93.10;;;29.66;45.23;95908.31;10506700;28;2361;-79
2021/08/14 16:44:42;;;;;;;;;;;30.30;93.60;;;29.17;45.91;95904.22;10495766;28;2183;-79
2021/08/14 16:49:44;;;;;;;;;;;30.10;93.70;;;29.15;46.04;95906.59;10496795;28;2225;-78
2021/08/14 16:54:47;;;;;;;;;;;30.00;93.90;;;29.02;46.70;95904.19;10494874;28;3106;-78
2021/08/14 16:59:50;;;;;;;;;;;29.80;94.00;;;28.89;46.83;95905.69;10496115;28;2391;-78
2021/08/14 17:04:52;;;;;;;;;;;29.70;94.40;;;28.76;47.57;95907.22;10486856;28;2344;-77
2021/08/14 17:09:55;;;;;;;;;;;29.60;95.00;;;28.65;47.87;95895.31;10492607;28;2327;-78
2021/08/14 17:14:58;;;;;;;;;;;29.50;95.60;;;28.42;48.12;95893.59;10467716;28;2313;-77
2021/08/14 17:20:00;;;;;;;;;;;29.30;95.60;;;28.26;48.58;95893.88;10489349;28;2395;-77
2021/08/14 17:25:03;;;;;;;;;;;29.10;96.30;;;28.08;49.63;95895.72;10489953;28;2333;-78
2021/08/14 17:30:06;;;;;;;;;;;29.00;97.40;;;28.00;50.50;95889.34;10472364;28;2324;-78
2021/08/14 17:35:08;;;;;;;;;;;28.90;97.90;;;27.94;50.65;95890.09;10489373;28;2279;-79
2021/08/14 17:40:11;;;;;;;;;;;28.80;98.30;;;27.82;51.21;95893.94;10490839;28;2438;-78
2021/08/14 17:45:14;;;;;;;;;;;28.70;98.80;;;27.67;51.91;95894.94;10495573;28;2258;-78
2021/08/14 17:50:17;;;;;;;;;;;28.60;99.70;;;27.53;52.25;95892.84;10470761;28;2317;-78
2021/08/14 17:55:19;;;;;;;;;;;28.30;99.90;;;27.47;52.99;95900.69;10470262;28;2197;-79
2021/08/14 18:00:22;;;;;;;;;;;28.10;99.90;;;27.25;54.42;95887.84;10485450;28;2225;-78
2021/08/14 18:05:26;;;;;;;;;;;28.10;99.90;;;27.19;53.78;95889.38;10500145;28;2284;-77
2021/08/14 18:10:28;;;;;;;;;;;28.10;99.90;;;27.01;54.37;95886.38;10501961;28;2363;-81
2021/08/14 18:15:31;;;;;;;;;;;27.90;99.90;;;26.91;54.90;95882.34;10486143;28;2316;-79
2021/08/14 18:20:34;;;;;;;;;;;27.80;99.90;;;26.78;55.48;95889.25;10511328;28;2388;-79
2021/08/14 18:25:36;;;;;;;;;;;27.70;99.90;;;26.56;56.20;95890.16;10489741;28;2296;-80
2021/08/14 18:30:40;;;;;;;;;;;27.60;99.90;;;26.53;56.06;95893.66;10489786;28;2176;-79
2021/08/14 18:35:43;;;;;;;;;;;27.40;99.90;;;26.39;56.85;95897.00;10506313;28;2313;-79
2021/08/14 18:40:46;;;;;;;;;;;27.30;99.90;;;26.21;57.52;95899.50;10514111;28;2259;-80
2021/08/14 18:45:48;;;;;;;;;;;27.10;99.90;;;26.03;58.66;95893.72;10520698;28;2341;-80
2021/08/14 18:50:51;;;;;;;;;;;27.00;99.90;;;25.97;58.47;95903.47;10508413;28;2371;-79
2021/08/14 18:55:54;;;;;;;;;;;26.90;99.90;;;25.88;58.92;95900.97;10500736;28;3175;-80
2021/08/14 19:00:57;;;;;;;;;;;26.80;99.90;;;25.82;59.65;95905.19;10500382;28;1370;-79
2021/08/14 19:06:00;;;;;;;;;;;26.70;99.90;;;25.62;60.18;95898.13;10496770;28;1502;-79
2021/08/14 19:11:02;;;;;;;;;;;26.60;99.90;;;25.60;60.21;95906.78;10496900;28;1980;-80
2021/08/14 19:16:05;;;;;;;;;;;26.50;99.90;;;25.56;60.23;95905.09;10494657;28;1260;-79
2021/08/14 19:21:08;;;;;;;;;;;26.30;99.90;;;25.45;60.63;95912.38;10500864;28;1628;-79
2021/08/14 19:26:10;;;;;;;;;;;26.20;99.90;;;25.28;61.41;95917.22;10483832;28;1470;-79
2021/08/14 19:31:14;;;;;;;;;;;26.20;99.90;;;25.16;62.25;95911.06;10493491;28;1983;-77
2021/08/14 19:36:17;;;;;;;;;;;26.10;99.90;;;25.22;61.98;95915.91;10490548;28;1533;-81
2021/08/14 19:41:20;;;;;;;;;;;26.10;99.90;;;25.10;62.64;95918.03;10480473;28;1628;-79
2021/08/14 19:46:23;;;;;;;;;;;26.00;99.90;;;25.04;63.13;95912.00;10498268;28;1696;-78
2021/08/14 19:51:25;;;;;;;;;;;25.80;99.90;;;24.86;63.86;95908.88;10471403;28;1914;-79
2021/08/14 19:56:28;;;;;;;;;;;25.80;99.90;;;24.79;64.60;95906.78;10496902;28;1766;-77
2021/08/14 20:01:31;;;;;;;;;;;25.70;99.90;;;24.69;64.77;95907.38;10493465;28;1636;-79
2021/08/14 20:06:34;;;;;;;;;;;25.60;99.90;;;24.68;65.43;95900.28;10493964;28;1192;-79
2021/08/14 20:11:36;;;;;;;;;;;25.50;99.90;;;24.56;65.83;95896.88;10478386;28;1991;-79
2021/08/14 20:16:39;;;;;;;;;;;25.50;99.90;;;24.46;66.07;95892.75;10492122;28;1526;-80
2021/08/14 20:21:42;;;;;;;;;;;25.40;99.90;;;24.33;67.02;95888.50;10496684;28;1378;-80
2021/08/14 20:26:45;;;;;;;;;;;25.30;99.90;;;24.27;67.49;95886.03;10500305;28;1635;-80
2021/08/14 20:31:48;;;;;;;;;;;25.20;99.90;;;24.17;68.06;95878.34;10502522;28;1888;-79
2021/08/14 20:36:50;;;;;;;;;;;25.10;99.90;;;24.03;68.85;95878.03;10495748;28;1121;-78
2021/08/14 20:41:53;;;;;;;;;;;25.00;99.90;;;24.02;68.58;95879.19;10489044;28;1505;-79
2021/08/14 20:46:56;;;;;;;;;;;24.90;99.90;;;23.92;69.37;95869.56;10521261;28;1203;-78
2021/08/14 20:51:58;;;;;;;;;;;24.80;99.90;;;23.89;69.52;95880.47;10520923;28;1898;-79
2021/08/14 20:57:01;;;;;;;;;;;24.80;99.90;;;23.83;69.77;95885.41;10496280;28;1829;-78
2021/08/14 21:02:04;;;;;;;;;;;24.70;99.90;;;23.76;70.51;95889.94;10509309;28;1622;-80
2021/08/14 21:07:07;;;;;;;;;;;24.70;99.90;;;23.73;71.29;95897.75;10501413;28;1166;-79
2021/08/14 21:12:10;;;;;;;;;;;24.50;99.90;;;23.78;71.24;95887.63;10470711;28;1973;-79
2021/08/14 21:17:13;;;;;;;;;;;24.60;99.90;;;23.74;71.73;95893.06;10494553;28;2318;-79
2021/08/14 21:22:15;;;;;;;;;;;24.60;99.90;;;23.78;71.78;95890.38;10499852;28;2301;-79
2021/08/14 21:27:18;;;;;;;;;;;24.60;99.90;;;23.68;72.15;95891.72;10504891;28;2273;-77
2021/08/14 21:32:21;;;;;;;;;;;24.50;99.90;;;23.64;72.65;95891.63;10484966;28;2389;-78
2021/08/14 21:37:24;;;;;;;;;;;24.50;99.90;;;23.53;73.01;95887.78;10499124;28;2248;-76
2021/08/14 21:42:26;;;;;;;;;;;24.40;99.90;;;23.56;73.22;95883.56;10504969;28;2312;-78
2021/08/14 21:47:30;;;;;;;;;;;24.40;99.90;;;23.47;73.83;95878.22;10503517;28;2324;-77
2021/08/14 21:52:33;;;;;;;;;;;24.40;99.90;;;23.44;74.13;95871.50;10499991;28;2298;-77
2021/08/14 21:57:36;;;;;;;;;;;24.40;99.90;;;23.36;74.47;95875.22;10497051;28;2378;-78
2021/08/14 22:02:38;;;;;;;;;;;24.20;99.90;;;23.33;74.77;95875.91;10495593;28;2423;-78
2021/08/14 22:07:41;;;;;;;;;;;24.20;99.90;;;23.32;74.87;95871.59;10475383;28;2272;-78
2021/08/14 22:12:44;;;;;;;;;;;24.20;99.90;;;23.27;75.04;95879.28;10495674;28;2394;-78
2021/08/14 22:17:47;;;;;;;;;;;24.20;99.90;;;23.50;74.76;95863.81;10499765;28;2324;-79
2021/08/14 22:22:50;;;;;;;;;;;24.20;99.90;;;23.29;75.43;95860.53;10493015;28;2276;-78
2021/08/14 22:27:53;;;;;;;;;;;24.20;99.90;;;23.24;76.08;95860.81;10478152;28;2373;-78
2021/08/14 22:32:57;;;;;;;;;;;24.10;99.90;;;23.31;76.22;95858.25;10482650;28;2241;-78
2021/08/14 22:37:59;;;;;;;;;;;24.10;99.90;;;23.35;75.86;95851.69;10496530;28;2270;-79
2021/08/14 22:43:02;;;;;;;;;;;24.20;99.90;;;23.19;76.89;95857.16;10481308;28;2280;-79
2021/08/14 22:48:05;;;;;;;;;;;24.10;99.90;;;23.07;77.89;95849.00;10492087;28;2219;-79
2021/08/14 22:53:08;;;;;;;;;;;24.10;99.90;;;22.99;78.39;95852.72;10494630;28;2270;-78
2021/08/14 22:58:10;;;;;;;;;;;23.90;99.90;;;22.89;78.91;95851.28;10495026;28;2303;-79
2021/08/14 23:03:13;;;;;;;;;;;23.80;99.90;;;22.85;78.99;95844.09;10478458;28;2276;-80
2021/08/14 23:08:16;;;;;;;;;;;23.80;99.90;;;22.80;79.26;95847.09;10495639;28;2272;-79
2021/08/14 23:13:19;;;;;;;;;;;23.70;99.90;;;22.75;79.60;95847.34;10491496;28;2289;-78